Time;durP1;ratioP1;P1;durP2;ratioP2;P2;SDS_P1;SDS_P2;PMS_P1;PMS_P2;Temp;Humidity;BMP_temperature;BMP_pressure;BME280_temperature;BME280_humidity;BME280_pressure;Samples;Min_cycle;Max_cycle;Signal;HPM_P1;HPM_P2
2022/01/02 00:01:12;;;;;;;6.97;4.60;;;;;;;9.70;100.00;101633.66;5025102;28;20236;-54
2022/01/02 00:03:41;;;;;;;7.87;4.87;;;;;;;9.63;100.00;101633.53;5023842;28;20232;-52
2022/01/02 00:06:09;;;;;;;8.57;4.87;;;;;;;9.68;100.00;101629.22;5018884;28;20515;-55
2022/01/02 00:08:41;;;;;;;5.80;4.67;;;;;;;9.61;100.00;101638.72;5025401;28;20236;-54
2022/01/02 00:11:10;;;;;;;6.73;4.50;;;;;;;9.56;100.00;101630.78;5024709;28;20248;-56
2022/01/02 00:13:42;;;;;;;7.57;5.17;;;;;;;9.52;100.00;101618.50;5024261;28;20256;-54
2022/01/02 00:16:09;;;;;;;4.90;4.40;;;;;;;9.52;100.00;101615.88;5023909;28;20263;-55
2022/01/02 00:18:38;;;;;;;7.83;4.90;;;;;;;9.58;100.00;101607.22;5024165;28;20356;-53
2022/01/02 00:21:07;;;;;;;4.60;4.00;;;;;;;9.50;100.00;101601.84;5025613;28;20252;-52
2022/01/02 00:23:47;;;;;;;5.40;4.80;;;;;;;9.47;100.00;101596.53;5024705;28;20248;-53
2022/01/02 00:26:17;;;;;;;5.27;4.73;;;;;;;9.47;100.00;101583.44;5024425;28;20278;-53
2022/01/02 00:28:43;;;;;;;6.10;4.70;;;;;;;9.48;100.00;101582.59;5024556;28;20244;-55
2022/01/02 00:31:10;;;;;;;6.23;4.73;;;;;;;9.41;100.00;101582.47;5024985;28;20271;-53
2022/01/02 00:33:37;;;;;;;5.23;3.80;;;;;;;9.45;100.00;101574.69;5024372;28;20259;-54
2022/01/02 00:36:04;;;;;;;7.27;4.43;;;;;;;9.40;100.00;101570.22;5024598;28;20317;-57
2022/01/02 00:38:31;;;;;;;7.97;4.33;;;;;;;9.40;100.00;101554.47;5025217;28;20728;-53
2022/01/02 00:40:59;;;;;;;5.27;4.37;;;;;;;9.37;100.00;101563.19;5025558;28;20228;-55
2022/01/02 00:43:34;;;;;;;7.53;3.90;;;;;;;9.28;100.00;101550.81;5024169;28;20258;-54
2022/01/02 00:46:01;;;;;;;9.53;4.80;;;;;;;9.20;100.00;101548.91;5024375;28;20299;-52
2022/01/02 00:48:30;;;;;;;7.20;4.83;;;;;;;9.16;100.00;101540.13;5024153;28;20705;-55
2022/01/02 00:51:01;;;;;;;7.27;4.60;;;;;;;9.22;100.00;101545.44;5024628;28;20270;-54
2022/01/02 00:53:34;;;;;;;7.00;5.17;;;;;;;9.18;100.00;101532.28;5024270;28;20309;-55
2022/01/02 00:56:03;;;;;;;8.50;5.57;;;;;;;9.17;100.00;101526.16;5016874;28;20245;-53
2022/01/02 00:58:35;;;;;;;7.30;4.70;;;;;;;9.14;100.00;101526.09;5023077;28;20260;-53
2022/01/02 01:01:06;;;;;;;8.97;4.80;;;;;;;9.12;100.00;101509.47;5024784;28;20224;-54
2022/01/02 01:03:33;;;;;;;6.73;5.07;;;;;;;9.13;100.00;101513.00;5024329;28;20229;-53
2022/01/02 01:06:03;;;;;;;6.27;5.37;;;;;;;9.04;100.00;101508.47;5024039;28;20237;-55
2022/01/02 01:08:31;;;;;;;7.60;5.40;;;;;;;9.00;100.00;101518.00;5024334;28;20676;-55
2022/01/02 01:11:00;;;;;;;8.93;5.50;;;;;;;9.02;100.00;101515.38;5025596;28;20271;-53
2022/01/02 01:13:27;;;;;;;7.47;5.13;;;;;;;9.02;100.00;101515.38;5028351;28;20326;-54
2022/01/02 01:15:54;;;;;;;9.43;5.60;;;;;;;9.08;100.00;101505.91;5020955;28;20224;-57
2022/01/02 01:18:22;;;;;;;10.20;5.87;;;;;;;8.98;100.00;101497.88;5029294;28;20229;-53
2022/01/02 01:20:50;;;;;;;8.40;6.20;;;;;;;8.96;100.00;101495.22;5030590;28;20240;-54
2022/01/02 01:23:17;;;;;;;7.97;5.07;;;;;;;9.02;100.00;101494.44;5028082;28;20726;-53
2022/01/02 01:25:46;;;;;;;9.87;4.97;;;;;;;9.04;100.00;101495.34;5028560;28;20248;-55
2022/01/02 01:28:12;;;;;;;7.63;5.57;;;;;;;8.93;100.00;101495.16;5027136;28;20313;-55
2022/01/02 01:30:40;;;;;;;8.50;5.00;;;;;;;9.00;100.00;101491.81;5028102;28;20236;-55
2022/01/02 01:33:06;;;;;;;9.17;5.17;;;;;;;9.00;100.00;101476.09;5027578;28;20286;-53
2022/01/02 01:35:34;;;;;;;7.00;5.27;;;;;;;9.06;100.00;101463.09;5027024;28;20354;-55
2022/01/02 01:38:00;;;;;;;7.97;5.40;;;;;;;9.02;100.00;101463.91;5020966;28;20243;-53
2022/01/02 01:40:30;;;;;;;10.17;6.00;;;;;;;9.00;100.00;101447.28;5027825;28;20256;-52
2022/01/02 01:42:58;;;;;;;12.37;5.80;;;;;;;9.03;100.00;101447.34;5019225;28;20232;-53
2022/01/02 01:45:31;;;;;;;8.87;5.73;;;;;;;8.91;100.00;101448.84;5035623;28;20697;-55
2022/01/02 01:48:03;;;;;;;7.90;4.83;;;;;;;8.83;100.00;101440.88;5027502;28;20237;-54
2022/01/02 01:50:32;;;;;;;7.37;5.47;;;;;;;8.85;100.00;101449.66;5026378;28;20228;-54
2022/01/02 01:52:58;;;;;;;7.00;5.33;;;;;;;8.86;100.00;101440.06;5027604;28;20240;-55
2022/01/02 01:55:24;;;;;;;5.77;4.87;;;;;;;8.86;100.00;101425.22;5026780;28;20271;-53
2022/01/02 01:57:51;;;;;;;8.17;5.30;;;;;;;8.93;100.00;101416.59;5026116;28;20248;-53
2022/01/02 02:00:20;;;;;;;7.07;5.17;;;;;;;8.90;100.00;101413.94;5026935;28;20256;-54
2022/01/02 02:02:46;;;;;;;7.40;5.90;;;;;;;8.99;100.00;101411.47;5027322;28;20255;-53
2022/01/02 02:05:14;;;;;;;8.50;6.10;;;;;;;8.89;100.00;101398.22;5026369;28;20748;-55
2022/01/02 02:07:43;;;;;;;6.63;5.13;;;;;;;8.84;100.00;101403.34;5026965;28;20260;-53
2022/01/02 02:10:14;;;;;;;8.40;5.97;;;;;;;8.86;100.00;101388.56;5026697;28;20676;-54
2022/01/02 02:12:41;;;;;;;7.27;5.33;;;;;;;8.89;100.00;101398.22;5026359;28;20646;-53
2022/01/02 02:15:09;;;;;;;5.70;5.20;;;;;;;8.85;100.00;101394.66;5026219;28;20351;-54
2022/01/02 02:17:36;;;;;;;6.20;5.60;;;;;;;8.81;100.00;101403.31;5026858;28;20248;-54
2022/01/02 02:20:13;;;;;;;6.07;4.77;;;;;;;8.94;100.00;101389.56;5026783;28;20263;-54
2022/01/02 02:22:41;;;;;;;7.10;5.40;;;;;;;8.85;100.00;101371.09;5025761;28;20256;-54
2022/01/02 02:25:08;;;;;;;6.23;5.43;;;;;;;8.88;100.00;101373.75;5026739;28;20228;-56
2022/01/02 02:27:35;;;;;;;7.90;4.53;;;;;;;8.80;100.00;101367.50;5026854;28;20275;-55
2022/01/02 02:30:01;;;;;;;6.17;5.57;;;;;;;8.88;100.00;101367.63;5027488;28;20256;-54
2022/01/02 02:32:27;;;;;;;7.83;5.80;;;;;;;8.79;100.00;101357.88;5027305;28;20221;-54
2022/01/02 02:34:54;;;;;;;8.67;5.83;;;;;;;8.73;100.00;101360.41;5025494;28;20294;-55
2022/01/02 02:37:21;;;;;;;6.73;5.40;;;;;;;8.68;100.00;101362.06;5026274;28;20240;-54
2022/01/02 02:39:48;;;;;;;6.37;5.03;;;;;;;8.63;100.00;101369.81;5026786;28;20591;-53
2022/01/02 02:42:25;;;;;;;9.17;5.33;;;;;;;8.68;100.00;101357.72;5026559;28;20279;-55
2022/01/02 02:44:58;;;;;;;5.67;4.93;;;;;;;8.59;100.00;101342.72;5027415;28;20221;-54
2022/01/02 02:50:08;;;;;;;5.77;4.57;;;;;;;8.57;100.00;101323.50;5019702;28;20243;-53
2022/01/02 02:52:41;;;;;;;12.50;5.87;;;;;;;8.63;100.00;101303.50;5026728;28;20259;-53
2022/01/02 02:55:08;;;;;;;7.83;5.40;;;;;;;8.57;100.00;101318.28;5025441;28;20592;-54
2022/01/02 02:57:35;;;;;;;6.63;5.03;;;;;;;8.63;100.00;101306.13;5026396;28;20291;-55
2022/01/02 03:00:01;;;;;;;5.50;4.90;;;;;;;8.66;100.00;101311.41;5026056;28;20315;-54
2022/01/02 03:02:28;;;;;;;9.80;5.47;;;;;;;8.58;100.00;101306.94;5026192;28;20663;-55
2022/01/02 03:04:54;;;;;;;5.97;4.77;;;;;;;8.60;100.00;101299.13;5025110;28;20302;-54
2022/01/02 03:07:20;;;;;;;9.17;4.93;;;;;;;8.74;100.00;101299.31;5025452;28;20378;-54
2022/01/02 03:09:51;;;;;;;7.07;4.93;;;;;;;8.57;100.00;101296.47;5026713;28;20318;-57
2022/01/02 03:12:18;;;;;;;7.83;5.17;;;;;;;8.53;100.00;101294.63;5024410;28;20247;-58
2022/01/02 03:14:44;;;;;;;6.33;4.47;;;;;;;8.46;100.00;101277.06;5026145;28;20233;-53
2022/01/02 03:17:11;;;;;;;8.93;5.20;;;;;;;8.47;100.00;101273.63;5024814;28;20260;-55
2022/01/02 03:19:37;;;;;;;6.90;4.90;;;;;;;8.51;100.00;101264.94;5024838;28;20725;-53
2022/01/02 03:22:06;;;;;;;6.27;5.07;;;;;;;8.52;100.00;101261.47;5027287;28;20255;-55
2022/01/02 03:24:32;;;;;;;5.13;4.63;;;;;;;8.48;100.00;101275.38;5025296;28;20302;-54
2022/01/02 03:27:00;;;;;;;7.47;5.10;;;;;;;8.53;100.00;101281.53;5025165;28;20282;-53
2022/01/02 03:29:26;;;;;;;6.83;4.90;;;;;;;8.54;100.00;101284.19;5024406;28;20487;-55
2022/01/02 03:31:52;;;;;;;7.40;4.70;;;;;;;8.60;100.00;101271.22;5025503;28;20248;-56
2022/01/02 03:34:19;;;;;;;7.40;5.73;;;;;;;8.49;100.00;101275.38;5023469;28;20252;-53
2022/01/02 03:36:45;;;;;;;6.27;4.47;;;;;;;8.46;100.00;101257.03;5024973;28;20264;-54
2022/01/02 03:39:11;;;;;;;6.10;4.53;;;;;;;8.43;100.00;101262.22;5024390;28;20232;-55
2022/01/02 03:41:37;;;;;;;9.23;5.07;;;;;;;8.41;100.00;101263.03;5025420;28;20267;-53
2022/01/02 03:44:05;;;;;;;7.40;4.87;;;;;;;8.44;100.00;101266.59;5024104;28;20299;-53
2022/01/02 03:46:31;;;;;;;5.87;4.23;;;;;;;8.39;100.00;101257.78;5024997;28;20807;-54
2022/01/02 03:48:58;;;;;;;6.50;5.00;;;;;;;8.38;100.00;101237.69;5025368;28;20260;-52
2022/01/02 03:51:24;;;;;;;5.27;4.77;;;;;;;8.50;100.00;101232.66;5025147;28;20329;-54
2022/01/02 03:53:50;;;;;;;5.27;4.77;;;;;;;8.48;100.00;101223.03;5025300;28;20236;-55
2022/01/02 03:56:17;;;;;;;8.00;5.37;;;;;;;8.49;100.00;101225.66;5024288;28;20614;-55
2022/01/02 03:58:43;;;;;;;6.07;4.70;;;;;;;8.45;100.00;101226.47;5024581;28;20252;-53
2022/01/02 04:01:11;;;;;;;5.10;4.67;;;;;;;8.49;100.00;101230.88;5024424;28;20260;-53
2022/01/02 04:03:37;;;;;;;4.90;4.47;;;;;;;8.38;100.00;101226.34;5024273;28;20268;-54
2022/01/02 04:06:03;;;;;;;7.47;4.80;;;;;;;8.49;100.00;101216.94;5024544;28;20256;-54
2022/01/02 04:08:29;;;;;;;5.10;4.47;;;;;;;8.37;100.00;101204.50;5025184;28;20267;-54
2022/01/02 04:10:56;;;;;;;5.43;4.97;;;;;;;8.33;100.00;101213.19;5025146;28;20611;-54
2022/01/02 04:13:22;;;;;;;9.00;5.63;;;;;;;8.36;100.00;101215.84;5023374;28;20267;-54
2022/01/02 04:15:48;;;;;;;7.83;4.83;;;;;;;8.47;100.00;101221.28;5024526;28;20268;-54
2022/01/02 04:18:16;;;;;;;4.97;4.47;;;;;;;8.43;100.00;101228.19;5024865;28;20256;-53
2022/01/02 04:20:42;;;;;;;5.30;4.80;;;;;;;8.41;100.00;101219.44;5025578;28;20268;-55
2022/01/02 04:23:09;;;;;;;5.50;4.03;;;;;;;8.35;100.00;101224.53;5024235;28;20244;-54
2022/01/02 04:25:35;;;;;;;4.77;4.27;;;;;;;8.34;100.00;101246.31;5024259;28;20282;-53
2022/01/02 04:28:01;;;;;;;4.60;3.70;;;;;;;8.39;100.00;101244.72;5023791;28;20249;-55
2022/01/02 04:30:28;;;;;;;7.27;5.33;;;;;;;8.48;100.00;101237.00;5024425;28;20236;-56
2022/01/02 04:32:54;;;;;;;9.97;4.67;;;;;;;8.36;100.00;101239.41;5015876;28;20271;-53
2022/01/02 04:35:22;;;;;;;5.47;4.90;;;;;;;8.26;100.00;101237.47;5023034;28;20228;-55
2022/01/02 04:37:48;;;;;;;5.27;4.13;;;;;;;8.21;100.00;101239.13;5024435;28;20302;-56
2022/01/02 04:40:14;;;;;;;9.07;5.47;;;;;;;8.21;100.00;101234.75;5024596;28;20316;-53
2022/01/02 04:42:41;;;;;;;5.70;4.90;;;;;;;8.21;100.00;101229.53;5024748;28;20248;-54
2022/01/02 04:45:08;;;;;;;6.00;5.10;;;;;;;8.11;100.00;101233.75;5025074;28;20368;-55
2022/01/02 04:47:34;;;;;;;7.90;5.27;;;;;;;8.17;100.00;101234.69;5028911;28;20242;-54
2022/01/02 04:50:00;;;;;;;7.60;5.47;;;;;;;8.17;100.00;101239.94;5029095;28;20339;-55
2022/01/02 04:52:28;;;;;;;5.40;4.87;;;;;;;8.17;100.00;101237.31;5029094;28;20236;-54
2022/01/02 04:54:54;;;;;;;5.87;5.07;;;;;;;8.16;100.00;101236.44;5029273;28;20234;-55
2022/01/02 04:57:20;;;;;;;12.33;5.77;;;;;;;8.14;100.00;101227.69;5027431;28;20306;-54
2022/01/02 04:59:47;;;;;;;8.70;5.60;;;;;;;8.17;100.00;101225.13;5029431;28;20251;-55
2022/01/02 05:02:13;;;;;;;8.00;5.67;;;;;;;8.11;100.00;101219.81;5028754;28;20232;-53
2022/01/02 05:04:40;;;;;;;9.27;5.47;;;;;;;8.06;100.00;101213.59;5028503;28;20271;-54
2022/01/02 05:07:07;;;;;;;7.53;5.07;;;;;;;8.04;100.00;101217.94;5028382;28;20324;-55
2022/01/02 05:09:35;;;;;;;6.80;5.30;;;;;;;8.09;100.00;101214.53;5028511;28;20260;-53
2022/01/02 05:12:01;;;;;;;6.60;5.97;;;;;;;8.01;100.00;101203.06;5028220;28;20295;-53
2022/01/02 05:14:28;;;;;;;5.73;4.93;;;;;;;7.98;100.00;101204.75;5027388;28;20286;-55
2022/01/02 05:16:54;;;;;;;6.87;5.00;;;;;;;7.99;100.00;101196.03;5027653;28;20240;-52
2022/01/02 05:19:21;;;;;;;7.67;6.37;;;;;;;7.99;100.00;101194.31;5027059;28;20713;-53
2022/01/02 05:21:47;;;;;;;7.70;6.10;;;;;;;7.95;100.00;101187.28;5030096;28;20260;-55
2022/01/02 05:24:13;;;;;;;7.27;5.63;;;;;;;7.90;100.00;101186.31;5027796;28;20232;-54
2022/01/02 05:26:41;;;;;;;8.90;5.30;;;;;;;7.91;100.00;101169.78;5029468;28;20267;-52
2022/01/02 05:29:07;;;;;;;10.20;5.50;;;;;;;7.99;100.00;101152.47;5031170;28;20228;-54
2022/01/02 05:31:34;;;;;;;7.60;5.60;;;;;;;7.96;100.00;101147.19;5028126;28;20781;-52
2022/01/02 05:34:00;;;;;;;11.60;6.40;;;;;;;7.97;100.00;101154.19;5028485;28;20255;-52
2022/01/02 05:36:26;;;;;;;7.07;4.87;;;;;;;7.98;100.00;101147.22;5027633;28;20260;-54
2022/01/02 05:38:53;;;;;;;8.80;5.57;;;;;;;7.91;100.00;101130.56;5028373;28;20248;-53
2022/01/02 05:41:19;;;;;;;7.57;5.27;;;;;;;7.92;100.00;101148.00;5027945;28;20286;-55
2022/01/02 05:43:47;;;;;;;8.97;4.60;;;;;;;7.92;100.00;101145.38;5030186;28;20238;-55
2022/01/02 05:46:13;;;;;;;8.00;6.03;;;;;;;7.92;100.00;101150.63;5031304;28;20248;-55
2022/01/02 05:48:40;;;;;;;7.37;5.17;;;;;;;7.94;100.00;101138.47;5032092;28;20240;-54
2022/01/02 05:51:06;;;;;;;12.17;6.03;;;;;;;7.91;100.00;101127.94;5032509;28;20228;-54
2022/01/02 05:53:33;;;;;;;10.00;4.50;;;;;;;7.89;100.00;101127.91;5029498;28;20260;-54
2022/01/02 05:55:59;;;;;;;5.90;4.80;;;;;;;7.84;100.00;101121.75;5027173;28;20314;-55
2022/01/02 05:58:25;;;;;;;6.10;5.20;;;;;;;7.89;100.00;101125.28;5025321;28;20716;-55
2022/01/02 06:00:53;;;;;;;9.83;5.43;;;;;;;7.89;100.00;101125.28;5027576;28;20232;-54
2022/01/02 06:03:19;;;;;;;8.33;5.17;;;;;;;7.90;100.00;101134.03;5027883;28;20282;-57
2022/01/02 06:05:46;;;;;;;14.27;6.77;;;;;;;7.86;100.00;101116.53;5027628;28;20298;-53
2022/01/02 06:08:12;;;;;;;8.43;4.70;;;;;;;7.83;100.00;101100.81;5028110;28;20280;-55
2022/01/02 06:10:39;;;;;;;8.13;6.07;;;;;;;7.81;100.00;101110.34;5027739;28;20229;-54
2022/01/02 06:13:05;;;;;;;6.37;5.40;;;;;;;7.77;100.00;101101.59;5027560;28;20298;-53
2022/01/02 06:15:31;;;;;;;6.73;5.23;;;;;;;7.89;100.00;101099.16;5027121;28;20264;-55
2022/01/02 06:17:59;;;;;;;7.93;5.33;;;;;;;7.87;100.00;101093.03;5027595;28;20268;-55
2022/01/02 06:20:26;;;;;;;8.70;5.43;;;;;;;7.82;100.00;101101.66;5026673;28;20266;-53
2022/01/02 06:22:54;;;;;;;8.10;5.47;;;;;;;7.80;100.00;101099.03;5027697;28;20249;-54
2022/01/02 06:25:20;;;;;;;7.10;5.47;;;;;;;7.86;100.00;101091.28;5026540;28;20649;-54
2022/01/02 06:27:46;;;;;;;10.93;5.97;;;;;;;7.82;100.00;101093.81;5027634;28;20256;-54
2022/01/02 06:30:13;;;;;;;6.13;5.50;;;;;;;7.77;100.00;101092.88;5025475;28;20252;-53
2022/01/02 06:32:39;;;;;;;6.30;5.10;;;;;;;7.82;100.00;101093.81;5026974;28;20244;-54
2022/01/02 06:35:08;;;;;;;9.43;5.27;;;;;;;7.90;100.00;101076.53;5025696;28;20236;-51
2022/01/02 06:37:34;;;;;;;7.53;5.57;;;;;;;7.93;100.00;101068.69;5026755;28;20244;-53
2022/01/02 06:40:00;;;;;;;8.27;5.07;;;;;;;7.99;100.00;101087.09;5027330;28;20667;-55
2022/01/02 06:42:26;;;;;;;5.77;5.17;;;;;;;8.03;100.00;101081.06;5026851;28;20255;-53
2022/01/02 06:44:53;;;;;;;6.23;5.63;;;;;;;8.03;100.00;101067.97;5020359;28;20263;-54
2022/01/02 06:47:19;;;;;;;9.83;5.67;;;;;;;8.02;100.00;101071.47;5026681;28;20232;-54
2022/01/02 06:49:45;;;;;;;8.10;5.73;;;;;;;7.95;100.00;101079.19;5026349;28;20581;-54
2022/01/02 06:52:13;;;;;;;8.37;5.27;;;;;;;7.94;100.00;101078.31;5026545;28;20307;-54
2022/01/02 06:54:40;;;;;;;9.03;5.87;;;;;;;8.04;100.00;101080.22;5026966;28;20237;-54
2022/01/02 06:57:06;;;;;;;8.33;5.37;;;;;;;8.04;100.00;101082.84;5026197;28;20239;-53
2022/01/02 06:59:32;;;;;;;9.30;5.40;;;;;;;8.13;100.00;101062.03;5026078;28;20330;-55
2022/01/02 07:01:59;;;;;;;7.33;4.90;;;;;;;8.08;100.00;101050.66;5026661;28;20301;-54
2022/01/02 07:04:25;;;;;;;8.07;4.90;;;;;;;8.11;100.00;101044.59;5025460;28;20902;-54
2022/01/02 07:06:51;;;;;;;6.27;5.23;;;;;;;8.10;100.00;101042.81;5025788;28;20260;-54
2022/01/02 07:09:19;;;;;;;10.70;6.13;;;;;;;8.12;100.00;101038.50;5025314;28;20252;-54
2022/01/02 07:11:45;;;;;;;9.10;5.20;;;;;;;8.10;100.00;101045.41;5026312;28;20274;-55
2022/01/02 07:14:11;;;;;;;6.83;4.43;;;;;;;8.12;100.00;101047.22;5024601;28;20632;-55
2022/01/02 07:16:38;;;;;;;7.43;4.60;;;;;;;8.12;100.00;101041.97;5025664;28;20310;-56
2022/01/02 07:19:04;;;;;;;5.33;4.40;;;;;;;8.25;100.00;101042.13;5025072;28;20257;-54
2022/01/02 07:21:30;;;;;;;7.13;4.57;;;;;;;8.17;100.00;101051.63;5033322;28;20821;-53
2022/01/02 07:23:58;;;;;;;5.80;4.77;;;;;;;8.24;100.00;101058.69;5030560;28;20259;-54
2022/01/02 07:26:26;;;;;;;10.30;5.33;;;;;;;8.28;100.00;101056.16;5027632;28;20753;-52
2022/01/02 07:28:52;;;;;;;5.40;4.20;;;;;;;8.23;100.00;101039.50;5027692;28;20232;-52
2022/01/02 07:31:19;;;;;;;5.10;4.60;;;;;;;8.33;100.00;101046.63;5028415;28;20282;-54
2022/01/02 07:33:45;;;;;;;7.20;4.27;;;;;;;8.32;100.00;101049.22;5026489;28;20806;-53
2022/01/02 07:36:11;;;;;;;5.27;4.13;;;;;;;8.39;100.00;101037.13;5026250;28;20314;-55
2022/01/02 07:38:38;;;;;;;8.00;4.53;;;;;;;8.42;100.00;101040.66;5026942;28;20683;-53
2022/01/02 07:41:04;;;;;;;5.93;4.37;;;;;;;8.38;100.00;101049.31;5025661;28;20617;-54
2022/01/02 07:43:32;;;;;;;5.70;4.83;;;;;;;8.31;100.00;101058.78;5025281;28;21037;-56
2022/01/02 07:45:58;;;;;;;7.83;4.17;;;;;;;8.34;100.00;101051.00;5026757;28;20236;-54
2022/01/02 07:48:24;;;;;;;5.40;4.13;;;;;;;8.39;100.00;101051.09;5029939;28;20339;-54
2022/01/02 07:50:50;;;;;;;6.47;4.13;;;;;;;8.36;100.00;101051.03;5028614;28;20717;-56
2022/01/02 07:53:17;;;;;;;5.27;4.30;;;;;;;8.52;100.00;101037.28;5028897;28;20236;-56
2022/01/02 07:55:44;;;;;;;4.07;3.60;;;;;;;8.48;100.00;101043.34;5026260;28;20252;-54
2022/01/02 07:58:10;;;;;;;6.40;4.00;;;;;;;8.50;100.00;101025.94;5025339;28;20236;-55
2022/01/02 08:00:38;;;;;;;5.73;4.00;;;;;;;8.55;100.00;101016.41;5026668;28;20614;-55
2022/01/02 08:03:04;;;;;;;4.23;3.83;;;;;;;8.57;100.00;101019.06;5019648;28;20919;-55
2022/01/02 08:05:31;;;;;;;5.67;3.83;;;;;;;8.60;100.00;101029.56;5024686;28;20279;-55
2022/01/02 08:07:58;;;;;;;5.30;3.60;;;;;;;8.65;100.00;101033.09;5025594;28;20240;-55
2022/01/02 08:10:25;;;;;;;6.70;4.37;;;;;;;8.72;100.00;101028.81;5026632;28;20729;-53
2022/01/02 08:12:51;;;;;;;4.37;3.30;;;;;;;8.67;100.00;101027.84;5027820;28;20228;-51
2022/01/02 08:15:18;;;;;;;4.30;3.20;;;;;;;8.79;100.00;101023.66;5025108;28;20329;-54
2022/01/02 08:17:45;;;;;;;4.37;3.70;;;;;;;8.79;100.00;101022.78;5026617;28;20248;-55
2022/01/02 08:20:12;;;;;;;4.40;3.30;;;;;;;8.80;100.00;101032.38;5025470;28;20705;-55
2022/01/02 08:22:38;;;;;;;8.17;3.90;;;;;;;8.77;100.00;101022.75;5024764;28;20236;-54
2022/01/02 08:25:06;;;;;;;4.90;3.37;;;;;;;8.81;100.00;101018.44;5018171;28;20737;-54
2022/01/02 08:27:33;;;;;;;7.00;4.80;;;;;;;8.92;100.00;101029.03;5024375;28;20236;-55
2022/01/02 08:29:59;;;;;;;4.17;3.77;;;;;;;8.96;100.00;101021.22;5024870;28;20229;-54
2022/01/02 08:32:26;;;;;;;4.57;3.10;;;;;;;8.98;100.00;101010.75;5024777;28;20591;-53
2022/01/02 08:34:53;;;;;;;5.17;3.50;;;;;;;9.09;100.00;101001.28;5024098;28;20788;-54
2022/01/02 08:37:20;;;;;;;3.30;3.10;;;;;;;9.06;100.00;100999.50;5024524;28;20232;-55
2022/01/02 08:39:46;;;;;;;6.17;3.50;;;;;;;9.19;100.00;101004.84;5025354;28;20252;-53
2022/01/02 08:42:14;;;;;;;4.77;3.00;;;;;;;9.06;100.00;101001.25;5024894;28;20722;-56
2022/01/02 08:44:43;;;;;;;4.77;3.70;;;;;;;8.97;100.00;100991.53;5023588;28;20658;-54
2022/01/02 08:47:10;;;;;;;4.23;3.87;;;;;;;9.02;100.00;101000.34;5024473;28;20237;-56
2022/01/02 08:49:36;;;;;;;5.00;3.47;;;;;;;9.05;100.00;100992.47;5024399;28;20737;-54
2022/01/02 08:52:04;;;;;;;9.27;3.80;;;;;;;9.11;100.00;100993.41;5024683;28;20232;-54
2022/01/02 08:54:31;;;;;;;5.40;3.17;;;;;;;9.07;100.00;100988.16;5024810;28;20244;-55
2022/01/02 08:56:57;;;;;;;3.80;2.90;;;;;;;9.07;100.00;100993.38;5024652;28;20275;-53
2022/01/02 08:59:27;;;;;;;4.07;3.67;;;;;;;9.02;100.00;100996.81;5023951;28;20271;-54
2022/01/02 09:01:54;;;;;;;5.33;3.50;;;;;;;8.91;100.00;100994.09;5017947;28;20605;-54
2022/01/02 09:04:20;;;;;;;5.63;4.00;;;;;;;8.91;100.00;100988.84;5024313;28;20306;-55
2022/01/02 09:06:46;;;;;;;6.30;3.70;;;;;;;8.90;100.00;100966.16;5024841;28;20237;-53
2022/01/02 09:09:14;;;;;;;6.00;4.40;;;;;;;8.91;100.00;100962.66;5024888;28;20310;-55
2022/01/02 09:11:40;;;;;;;5.43;3.43;;;;;;;8.91;100.00;100970.53;5025746;28;20722;-53
2022/01/02 09:14:07;;;;;;;7.27;4.00;;;;;;;9.00;100.00;100970.63;5023958;28;20307;-53
2022/01/02 09:16:34;;;;;;;3.93;3.13;;;;;;;9.12;100.00;100967.22;5024357;28;20245;-55
2022/01/02 09:19:00;;;;;;;5.07;3.67;;;;;;;9.21;100.00;100966.44;5024319;28;20240;-53
2022/01/02 09:21:27;;;;;;;4.90;3.37;;;;;;;9.22;100.00;100971.69;5025928;28;20252;-53
2022/01/02 09:23:53;;;;;;;4.27;3.70;;;;;;;9.31;100.00;100968.28;5025318;28;20233;-53
2022/01/02 09:26:20;;;;;;;6.17;3.20;;;;;;;9.32;100.00;100967.41;5024714;28;20256;-54
2022/01/02 09:28:47;;;;;;;5.80;3.23;;;;;;;9.32;100.00;100970.88;5016609;28;20252;-53
2022/01/02 09:31:13;;;;;;;5.80;3.67;;;;;;;9.41;100.00;100959.63;5024847;28;20263;-55
2022/01/02 09:33:39;;;;;;;6.57;3.37;;;;;;;9.37;100.00;100957.84;5028401;28;20306;-54
2022/01/02 09:36:06;;;;;;;3.70;3.40;;;;;;;9.41;100.00;100951.75;5028192;28;20267;-54
2022/01/02 09:38:32;;;;;;;4.20;3.40;;;;;;;9.46;100.00;100957.03;5028702;28;20744;-55
2022/01/02 09:41:00;;;;;;;3.77;2.57;;;;;;;9.48;100.00;100958.78;5028913;28;20237;-54
2022/01/02 09:43:27;;;;;;;3.37;2.90;;;;;;;9.47;100.00;100946.53;5027864;28;20282;-52
2022/01/02 09:45:54;;;;;;;3.97;3.07;;;;;;;9.52;100.00;100931.72;5020517;28;20317;-57
2022/01/02 09:48:21;;;;;;;5.47;3.27;;;;;;;9.61;100.00;100951.00;5028999;28;20255;-53
2022/01/02 09:50:47;;;;;;;6.17;3.10;;;;;;;9.63;100.00;100931.81;5027922;28;20228;-54
2022/01/02 09:53:14;;;;;;;5.23;3.60;;;;;;;9.65;100.00;100930.06;5028409;28;20256;-55
2022/01/02 09:55:42;;;;;;;7.57;2.80;;;;;;;9.67;100.00;100940.56;5028399;28;20233;-54
2022/01/02 09:58:11;;;;;;;3.10;2.80;;;;;;;9.72;100.00;100944.97;5027051;28;20264;-55
2022/01/02 10:00:39;;;;;;;5.27;2.77;;;;;;;9.78;100.00;100936.25;5027944;28;20232;-53
2022/01/02 10:03:07;;;;;;;4.13;2.40;;;;;;;9.78;100.00;100912.66;5028093;28;20241;-52
2022/01/02 10:05:50;;;;;;;3.30;2.40;;;;;;;9.74;100.00;100937.09;5027832;28;20220;-56
2022/01/02 10:08:21;;;;;;;5.13;3.00;;;;;;;9.80;100.00;100919.66;5028383;28;20228;-54
2022/01/02 10:10:47;;;;;;;6.83;3.07;;;;;;;9.85;100.00;100917.06;5028109;28;20311;-53
2022/01/02 10:13:14;;;;;;;3.60;3.17;;;;;;;9.84;100.00;100909.19;5027588;28;20298;-54
2022/01/02 10:15:42;;;;;;;5.67;3.10;;;;;;;9.84;100.00;100893.47;5027406;28;20260;-54
2022/01/02 10:18:09;;;;;;;3.23;2.50;;;;;;;9.82;100.00;100890.81;5027732;28;20263;-53
2022/01/02 10:20:37;;;;;;;6.07;3.53;;;;;;;9.76;100.00;100882.94;5028745;28;20604;-54
2022/01/02 10:23:16;;;;;;;3.00;2.53;;;;;;;9.83;100.00;100883.81;5027381;28;20256;-53
2022/01/02 10:25:51;;;;;;;4.97;3.20;;;;;;;9.78;100.00;100884.69;5033853;28;20894;-56
2022/01/02 10:28:22;;;;;;;3.27;2.67;;;;;;;9.83;100.00;100871.59;5032999;28;20282;-54
2022/01/02 10:30:51;;;;;;;5.43;3.50;;;;;;;9.85;100.00;100869.84;5029730;28;20235;-54
2022/01/02 10:33:18;;;;;;;5.00;3.33;;;;;;;9.90;100.00;100860.28;5028238;28;20286;-52
2022/01/02 10:35:45;;;;;;;4.60;2.73;;;;;;;9.91;100.00;100856.78;5026274;28;20271;-55
2022/01/02 10:38:16;;;;;;;9.07;3.10;;;;;;;9.88;100.00;100845.41;5027206;28;20244;-54
2022/01/02 10:40:43;;;;;;;4.27;3.17;;;;;;;9.84;100.00;100841.88;5027456;28;20301;-54
2022/01/02 10:43:10;;;;;;;5.63;3.07;;;;;;;9.89;100.00;100850.63;5025761;28;20418;-54
2022/01/02 10:45:39;;;;;;;7.20;4.20;;;;;;;9.91;100.00;100833.16;5027040;28;20292;-51
2022/01/02 10:48:09;;;;;;;4.37;2.97;;;;;;;9.85;100.00;100825.28;5026526;28;20286;-54
2022/01/02 10:50:36;;;;;;;8.63;3.70;;;;;;;9.89;100.00;100816.53;5026523;28;20228;-55
2022/01/02 10:53:14;;;;;;;7.07;3.60;;;;;;;9.81;100.00;100802.53;5026697;28;20256;-56
2022/01/02 10:55:40;;;;;;;8.47;3.07;;;;;;;9.78;100.00;100802.53;5026412;28;20281;-55
2022/01/02 10:58:08;;;;;;;5.43;3.33;;;;;;;9.84;100.00;100818.28;5024841;28;20283;-55
2022/01/02 11:00:36;;;;;;;3.80;3.10;;;;;;;9.76;100.00;100815.66;5026799;28;20260;-54
2022/01/02 11:03:04;;;;;;;4.33;3.67;;;;;;;9.68;100.00;100796.38;5026593;28;20279;-53
2022/01/02 11:05:34;;;;;;;8.07;3.93;;;;;;;9.61;100.00;100789.34;5024606;28;20271;-55
2022/01/02 11:08:02;;;;;;;9.77;4.90;;;;;;;9.54;100.00;100782.34;5022992;28;20709;-56
2022/01/02 11:10:31;;;;;;;7.17;3.00;;;;;;;9.51;100.00;100791.09;5029029;28;20244;-54
2022/01/02 11:12:57;;;;;;;5.43;3.83;;;;;;;9.56;100.00;100791.97;5025209;28;20232;-54
2022/01/02 11:15:26;;;;;;;9.20;4.27;;;;;;;9.52;100.00;100776.22;5025351;28;20248;-53
2022/01/02 11:17:53;;;;;;;9.13;4.23;;;;;;;9.50;100.00;100765.72;5025939;28;20836;-54
2022/01/02 11:20:21;;;;;;;7.70;4.70;;;;;;;9.44;100.00;100752.63;5026947;28;20566;-53
2022/01/02 11:22:52;;;;;;;5.47;4.27;;;;;;;9.43;100.00;100727.25;5026556;28;20240;-54
2022/01/02 11:25:22;;;;;;;10.47;4.73;;;;;;;9.37;100.00;100732.50;5025449;28;20233;-54
2022/01/02 11:27:52;;;;;;;7.90;4.07;;;;;;;9.41;100.00;100729.03;5025026;28;20289;-52